Time;durP1;ratioP1;P1;durP2;ratioP2;P2;SDS_P1;SDS_P2;PMS_P1;PMS_P2;Temp;Humidity;BMP_temperature;BMP_pressure;BME280_temperature;BME280_humidity;BME280_pressure;Samples;Min_cycle;Max_cycle;Signal;HPM_P1;HPM_P2
2023/04/16 00:03:16;;;;;;;1.25;0.40;;;;;;;;;;20842990;28;20091;-61
2023/04/16 00:13:17;;;;;;;1.40;0.30;;;;;;;;;;20845359;28;20049;-63
2023/04/16 00:23:20;;;;;;;0.63;0.17;;;;;;;;;;20843757;28;20140;-64
2023/04/16 00:33:22;;;;;;;0.45;0.22;;;;;;;;;;20844428;28;20057;-61
2023/04/16 00:43:25;;;;;;;3.30;0.15;;;;;;;;;;20843783;28;20052;-60
2023/04/16 00:53:27;;;;;;;0.57;0.20;;;;;;;;;;20843027;28;20486;-62
2023/04/16 01:03:37;;;;;;;1.75;0.05;;;;;;;;;;20841234;28;20052;-62
2023/04/16 01:13:39;;;;;;;2.42;0.30;;;;;;;;;;20839540;28;20056;-61
2023/04/16 01:23:40;;;;;;;6.70;0.40;;;;;;;;;;20839176;28;20057;-61
2023/04/16 01:33:42;;;;;;;1.30;0.28;;;;;;;;;;20839838;28;20095;-62
2023/04/16 01:43:44;;;;;;;2.75;0.20;;;;;;;;;;20837911;28;20053;-61
2023/04/16 01:53:46;;;;;;;1.65;0.20;;;;;;;;;;20838325;28;20154;-62
2023/04/16 02:03:48;;;;;;;0.50;0.20;;;;;;;;;;20836317;28;20053;-61
2023/04/16 02:13:49;;;;;;;0.43;0.10;;;;;;;;;;20836713;28;20056;-62
2023/04/16 02:23:51;;;;;;;1.00;0.10;;;;;;;;;;20836031;28;20079;-61
2023/04/16 02:33:53;;;;;;;0.20;0.10;;;;;;;;;;20835293;28;20482;-61
2023/04/16 02:43:55;;;;;;;0.15;0.00;;;;;;;;;;20834718;28;20049;-61
2023/04/16 02:53:57;;;;;;;0.60;0.10;;;;;;;;;;20832653;28;20509;-62
2023/04/16 03:03:59;;;;;;;1.85;0.10;;;;;;;;;;20833270;28;20057;-62
2023/04/16 03:14:00;;;;;;;0.68;0.20;;;;;;;;;;20832402;28;20053;-61
2023/04/16 03:24:02;;;;;;;0.40;0.10;;;;;;;;;;20833001;28;20376;-62
2023/04/16 03:34:04;;;;;;;0.65;0.20;;;;;;;;;;20844176;28;20195;-62
2023/04/16 03:44:06;;;;;;;0.32;0.10;;;;;;;;;;20858787;28;20049;-62
2023/04/16 03:54:07;;;;;;;0.30;0.10;;;;;;;;;;20857871;28;20056;-61
2023/04/16 04:04:09;;;;;;;1.88;0.30;;;;;;;;;;20857783;28;20077;-61
2023/04/16 04:14:11;;;;;;;1.00;0.38;;;;;;;;;;20857182;28;20046;-62
2023/04/16 04:24:13;;;;;;;1.83;0.52;;;;;;;;;;20856801;28;20098;-62
2023/04/16 04:34:15;;;;;;;1.17;0.60;;;;;;;;;;20855569;28;20048;-61
2023/04/16 04:44:16;;;;;;;1.52;0.30;;;;;;;;;;20848549;28;20088;-62
2023/04/16 04:54:18;;;;;;;2.83;0.68;;;;;;;;;;20841607;28;20154;-62
2023/04/16 05:04:20;;;;;;;2.33;0.50;;;;;;;;;;20842302;28;20091;-62
2023/04/16 05:14:22;;;;;;;2.22;0.77;;;;;;;;;;20840870;28;20123;-62
2023/04/16 05:24:23;;;;;;;3.83;0.80;;;;;;;;;;20838688;28;20058;-60
2023/04/16 05:34:25;;;;;;;2.50;0.50;;;;;;;;;;20839947;28;20080;-62
2023/04/16 05:44:27;;;;;;;2.47;0.75;;;;;;;;;;20838851;28;20045;-61
2023/04/16 05:54:29;;;;;;;3.83;1.00;;;;;;;;;;20838146;28;20449;-61
2023/04/16 06:04:30;;;;;;;1.48;0.63;;;;;;;;;;20837521;28;20403;-62
2023/04/16 06:14:32;;;;;;;2.05;0.80;;;;;;;;;;20836635;28;20053;-63
2023/04/16 06:24:34;;;;;;;4.45;0.98;;;;;;;;;;20837158;28;20064;-62
2023/04/16 06:34:37;;;;;;;4.72;1.25;;;;;;;;;;20835195;28;20046;-62
2023/04/16 06:44:39;;;;;;;4.22;1.27;;;;;;;;;;20834343;28;20058;-61
2023/04/16 06:54:40;;;;;;;3.03;1.20;;;;;;;;;;20833666;28;20565;-63
2023/04/16 07:04:42;;;;;;;4.00;1.00;;;;;;;;;;20832406;28;20052;-62
2023/04/16 07:14:44;;;;;;;3.03;1.17;;;;;;;;;;20831514;28;20056;-62
2023/04/16 07:24:46;;;;;;;3.28;1.00;;;;;;;;;;20830843;28;20064;-62
2023/04/16 07:34:47;;;;;;;8.30;1.33;;;;;;;;;;20830772;28;20529;-61
2023/04/16 07:44:49;;;;;;;6.35;1.30;;;;;;;;;;20831143;28;20479;-63
2023/04/16 07:54:51;;;;;;;4.05;1.20;;;;;;;;;;20829681;28;20384;-61
2023/04/16 08:04:53;;;;;;;5.20;1.50;;;;;;;;;;20830458;28;20046;-62
2023/04/16 08:14:54;;;;;;;4.00;1.75;;;;;;;;;;20830017;28;20387;-62
2023/04/16 08:24:56;;;;;;;3.58;1.83;;;;;;;;;;20842529;28;20062;-64
2023/04/16 08:34:58;;;;;;;4.80;1.55;;;;;;;;;;20844231;28;20085;-62
2023/04/16 08:45:15;;;;;;;5.05;1.98;;;;;;;;;;20843273;28;20506;-63
2023/04/16 08:55:18;;;;;;;7.97;2.05;;;;;;;;;;20842705;28;20049;-61
2023/04/16 09:05:24;;;;;;;8.82;3.50;;;;;;;;;;20841835;28;20087;-62
2023/04/16 09:15:26;;;;;;;3.63;1.52;;;;;;;;;;20840621;28;20399;-62
2023/04/16 09:25:28;;;;;;;4.90;1.92;;;;;;;;;;20840669;28;20203;-62
2023/04/16 09:35:44;;;;;;;5.55;1.50;;;;;;;;;;20839073;28;20042;-62
2023/04/16 09:45:52;;;;;;;7.80;1.63;;;;;;;;;;20837945;28;20053;-62
2023/04/16 09:55:58;;;;;;;5.45;1.83;;;;;;;;;;20838107;28;20172;-62
2023/04/16 10:06:19;;;;;;;4.55;1.40;;;;;;;;;;20836924;28;20041;-61
2023/04/16 10:16:22;;;;;;;2.50;1.33;;;;;;;;;;20836347;28;20406;-61
2023/04/16 10:26:24;;;;;;;3.22;1.00;;;;;;;;;;20834504;28;20049;-62
2023/04/16 10:36:26;;;;;;;5.85;0.95;;;;;;;;;;20834590;28;20048;-63
2023/04/16 10:46:32;;;;;;;6.22;1.80;;;;;;;;;;20833031;28;20061;-62
2023/04/16 10:56:35;;;;;;;3.08;1.15;;;;;;;;;;20833393;28;20398;-64
2023/04/16 11:06:37;;;;;;;2.90;1.33;;;;;;;;;;20832577;28;20502;-61
2023/04/16 11:16:40;;;;;;;2.65;0.70;;;;;;;;;;20831393;28;20068;-64
2023/04/16 11:26:42;;;;;;;3.38;1.13;;;;;;;;;;20831374;28;20111;-61
2023/04/16 11:36:45;;;;;;;6.10;1.05;;;;;;;;;;20830410;28;20116;-64
2023/04/16 11:46:47;;;;;;;4.90;1.60;;;;;;;;;;20830869;28;20099;-63
2023/04/16 11:56:49;;;;;;;2.80;1.48;;;;;;;;;;20839440;28;20049;-62
2023/04/16 12:07:10;;;;;;;4.13;1.30;;;;;;;;;;20846548;28;20056;-62
2023/04/16 12:17:21;;;;;;;36.08;4.65;;;;;;;;;;20845105;28;20049;-62
2023/04/16 12:27:25;;;;;;;2.40;0.90;;;;;;;;;;20843025;28;20052;-61
2023/04/16 12:37:27;;;;;;;3.35;1.20;;;;;;;;;;20844166;28;20072;-61
2023/04/16 12:47:28;;;;;;;3.20;0.88;;;;;;;;;;20843348;28;20050;-62
2023/04/16 12:57:30;;;;;;;4.90;1.63;;;;;;;;;;20842300;28;20072;-62
2023/04/16 13:07:32;;;;;;;6.45;1.73;;;;;;;;;;20839869;28;20046;-63
2023/04/16 13:17:34;;;;;;;3.58;1.13;;;;;;;;;;20840819;28;20057;-61
2023/04/16 13:27:36;;;;;;;4.47;1.20;;;;;;;;;;20839828;28;20042;-62
2023/04/16 13:37:38;;;;;;;4.93;0.95;;;;;;;;;;20839116;28;20073;-62
2023/04/16 13:47:43;;;;;;;6.30;1.20;;;;;;;;;;20838690;28;20045;-63
2023/04/16 13:57:46;;;;;;;1.33;0.60;;;;;;;;;;20839227;28;20049;-63
2023/04/16 14:07:48;;;;;;;5.28;0.80;;;;;;;;;;20836915;28;20049;-63
2023/04/16 14:17:50;;;;;;;1.85;0.65;;;;;;;;;;20836232;28;20402;-63
2023/04/16 14:27:52;;;;;;;2.55;1.08;;;;;;;;;;20835700;28;20410;-62
2023/04/16 14:37:54;;;;;;;3.58;0.65;;;;;;;;;;20835292;28;20053;-62
2023/04/16 14:47:55;;;;;;;3.00;0.80;;;;;;;;;;20834675;28;20045;-62
2023/04/16 14:57:58;;;;;;;1.60;0.52;;;;;;;;;;20833863;28;20049;-62
2023/04/16 15:08:00;;;;;;;1.80;0.50;;;;;;;;;;20832922;28;20399;-62
2023/04/16 15:18:03;;;;;;;3.15;0.63;;;;;;;;;;20832227;28;20529;-63
2023/04/16 15:28:05;;;;;;;2.50;0.45;;;;;;;;;;20831923;28;20049;-62
2023/04/16 15:38:07;;;;;;;2.05;0.65;;;;;;;;;;20831438;28;20053;-62
2023/04/16 15:48:09;;;;;;;3.22;0.68;;;;;;;;;;20828946;28;20045;-63
2023/04/16 15:58:11;;;;;;;1.52;0.60;;;;;;;;;;20828628;28;20045;-62
2023/04/16 16:08:14;;;;;;;2.30;0.70;;;;;;;;;;20827793;28;20049;-63
2023/04/16 16:18:16;;;;;;;3.53;0.85;;;;;;;;;;20828580;28;20421;-62
2023/04/16 16:28:17;;;;;;;3.22;0.57;;;;;;;;;;20829434;28;20049;-62
2023/04/16 16:38:19;;;;;;;1.98;0.47;;;;;;;;;;20829970;28;20050;-63
2023/04/16 16:48:21;;;;;;;1.98;0.57;;;;;;;;;;20843190;28;20406;-61
2023/04/16 16:58:23;;;;;;;1.27;0.63;;;;;;;;;;20842126;28;20049;-63
2023/04/16 17:08:25;;;;;;;2.45;0.70;;;;;;;;;;20841843;28;20490;-62
2023/04/16 17:18:27;;;;;;;2.47;0.50;;;;;;;;;;20840552;28;20525;-62
2023/04/16 17:28:29;;;;;;;1.70;0.45;;;;;;;;;;20839886;28;20061;-62
2023/04/16 17:38:32;;;;;;;1.10;0.70;;;;;;;;;;20840255;28;20060;-62
2023/04/16 17:48:34;;;;;;;3.53;0.93;;;;;;;;;;20837693;28;20103;-63
2023/04/16 17:58:36;;;;;;;3.55;0.80;;;;;;;;;;20835459;28;20064;-62
2023/04/16 18:08:38;;;;;;;1.33;0.50;;;;;;;;;;20836057;28;20045;-62
2023/04/16 18:18:39;;;;;;;4.55;2.38;;;;;;;;;;20836106;28;20511;-62
2023/04/16 18:28:41;;;;;;;3.20;0.70;;;;;;;;;;20835591;28;20394;-63
2023/04/16 18:38:43;;;;;;;2.83;0.90;;;;;;;;;;20834257;28;20107;-62
2023/04/16 18:48:45;;;;;;;2.20;0.90;;;;;;;;;;20832903;28;20050;-62
2023/04/16 18:58:47;;;;;;;3.20;1.17;;;;;;;;;;20832519;28;20049;-62
2023/04/16 19:08:48;;;;;;;2.92;0.90;;;;;;;;;;20831559;28;20053;-62
2023/04/16 19:18:50;;;;;;;1.75;0.75;;;;;;;;;;20830193;28;20057;-62
2023/04/16 19:28:52;;;;;;;4.93;0.95;;;;;;;;;;20829335;28;20095;-62
2023/04/16 19:38:54;;;;;;;3.53;1.20;;;;;;;;;;20830662;28;20045;-63
2023/04/16 19:48:55;;;;;;;2.03;0.90;;;;;;;;;;20829243;28;20041;-62
2023/04/16 19:58:57;;;;;;;2.20;0.98;;;;;;;;;;20829745;28;20072;-61
2023/04/16 20:08:59;;;;;;;1.63;0.98;;;;;;;;;;20828951;28;20487;-62
2023/04/16 20:19:02;;;;;;;1.73;0.82;;;;;;;;;;20839573;28;20498;-61
2023/04/16 20:29:04;;;;;;;3.70;1.08;;;;;;;;;;20843797;28;20475;-62
2023/04/16 20:39:06;;;;;;;4.65;0.80;;;;;;;;;;20843841;28;20050;-62
2023/04/16 20:49:08;;;;;;;1.98;0.75;;;;;;;;;;20842222;28;20061;-62
2023/04/16 20:59:12;;;;;;;2.28;0.60;;;;;;;;;;20841675;28;20140;-62
2023/04/16 21:09:15;;;;;;;2.15;0.50;;;;;;;;;;20841366;28;20046;-62
2023/04/16 21:19:17;;;;;;;2.65;0.85;;;;;;;;;;20840080;28;20054;-63
2023/04/16 21:29:19;;;;;;;2.60;0.70;;;;;;;;;;20838789;28;20053;-63
2023/04/16 21:39:20;;;;;;;1.23;0.57;;;;;;;;;;20839749;28;20046;-63
2023/04/16 21:49:22;;;;;;;1.88;0.63;;;;;;;;;;20837079;28;20053;-62
2023/04/16 21:59:24;;;;;;;2.17;0.70;;;;;;;;;;20836837;28;20060;-61
2023/04/16 22:09:26;;;;;;;0.90;0.45;;;;;;;;;;20836086;28;20045;-62
2023/04/16 22:19:27;;;;;;;1.27;0.40;;;;;;;;;;20835597;28;20133;-62
2023/04/16 22:29:29;;;;;;;1.30;0.30;;;;;;;;;;20833683;28;20064;-61
2023/04/16 22:39:31;;;;;;;1.17;0.30;;;;;;;;;;20833300;28;20483;-62
2023/04/16 22:49:33;;;;;;;1.38;0.38;;;;;;;;;;20833357;28;20423;-62
2023/04/16 22:59:35;;;;;;;1.00;0.40;;;;;;;;;;20831327;28;20049;-62
2023/04/16 23:09:37;;;;;;;2.70;0.50;;;;;;;;;;20831998;28;20046;-62
2023/04/16 23:19:39;;;;;;;1.80;0.70;;;;;;;;;;20830908;28;20072;-62
2023/04/16 23:29:40;;;;;;;0.63;0.15;;;;;;;;;;20830979;28;20442;-61
2023/04/16 23:39:42;;;;;;;0.70;0.30;;;;;;;;;;20828971;28;20392;-62
2023/04/16 23:49:44;;;;;;;0.82;0.30;;;;;;;;;;20834910;28;20054;-62
2023/04/16 23:59:46;;;;;;;0.63;0.22;;;;;;;;;;20846546;28;20057;-61
